Time;durP1;ratioP1;P1;durP2;ratioP2;P2;SDS_P1;SDS_P2;PMS_P1;PMS_P2;Temp;Humidity;BMP_temperature;BMP_pressure;BME280_temperature;BME280_humidity;BME280_pressure;Samples;Min_cycle;Max_cycle;Signal;HPM_P1;HPM_P2
2023/08/12 00:02:13;;;;;;;2.47;2.30;;;;;;;21.82;81.75;100693.09;5071584;28;20717;-77
2023/08/12 00:04:40;;;;;;;2.87;2.57;;;;;;;21.90;81.18;100697.94;5072332;28;20200;-77
2023/08/12 00:07:06;;;;;;;2.90;2.70;;;;;;;21.90;81.08;100701.47;5055720;28;20229;-78
2023/08/12 00:09:33;;;;;;;2.87;2.63;;;;;;;21.94;80.91;100704.75;5059651;28;20201;-78
2023/08/12 00:11:59;;;;;;;3.83;2.57;;;;;;;21.96;80.46;100713.50;5071437;28;20253;-77
2023/08/12 00:14:27;;;;;;;4.73;2.97;;;;;;;21.98;80.73;100711.59;5071606;28;20201;-78
2023/08/12 00:16:54;;;;;;;2.40;2.20;;;;;;;21.94;80.96;100702.97;5071704;28;20210;-77
2023/08/12 00:19:20;;;;;;;3.00;2.80;;;;;;;21.91;80.57;100708.47;5071069;28;20677;-78
2023/08/12 00:21:47;;;;;;;2.67;2.47;;;;;;;21.91;80.69;100710.28;5071629;28;20225;-78
2023/08/12 00:24:13;;;;;;;2.17;2.07;;;;;;;21.86;80.54;100709.69;5071934;28;20209;-77
2023/08/12 00:30:04;;;;;;;3.47;2.20;;;;;;;21.81;80.89;100708.19;5062294;28;20188;-78
2023/08/12 00:32:30;;;;;;;2.70;2.50;;;;;;;21.75;81.05;100699.75;5071628;28;20236;-77
2023/08/12 00:34:57;;;;;;;3.60;2.30;;;;;;;21.70;81.25;100697.34;5071407;28;20204;-77
2023/08/12 00:37:23;;;;;;;2.77;2.10;;;;;;;21.63;81.96;100681.91;5071472;28;20201;-78
2023/08/12 00:39:50;;;;;;;3.03;2.53;;;;;;;21.57;82.50;100675.16;5071502;28;20689;-78
2023/08/12 00:42:16;;;;;;;2.93;2.53;;;;;;;21.58;82.71;100669.72;5071193;28;20224;-77
2023/08/12 00:44:43;;;;;;;3.10;2.57;;;;;;;21.58;82.97;100653.78;5071002;28;20201;-78
2023/08/12 00:47:11;;;;;;;2.60;2.40;;;;;;;21.59;82.95;100649.34;5071294;28;20241;-77
2023/08/12 00:49:40;;;;;;;2.70;2.03;;;;;;;21.59;82.82;100652.84;5071028;28;20211;-78
2023/08/12 00:52:07;;;;;;;2.90;2.60;;;;;;;21.59;83.10;100646.69;5070932;28;20706;-78
2023/08/12 00:54:34;;;;;;;1.97;1.87;;;;;;;21.54;83.66;100639.00;5071691;28;20238;-77
2023/08/12 00:57:00;;;;;;;3.53;2.27;;;;;;;21.44;84.43;100616.59;5071102;28;20209;-77
2023/08/12 00:59:27;;;;;;;3.30;2.97;;;;;;;21.38;84.65;100607.19;5070789;28;20209;-77
2023/08/12 01:01:53;;;;;;;4.17;2.57;;;;;;;21.30;84.99;100603.31;5073454;28;20220;-78
2023/08/12 01:04:21;;;;;;;2.40;2.20;;;;;;;21.31;84.50;100597.91;5075142;28;20209;-77
2023/08/12 01:06:48;;;;;;;2.70;2.07;;;;;;;21.37;84.32;100607.31;5075203;28;20227;-77
2023/08/12 01:09:14;;;;;;;2.63;2.40;;;;;;;21.39;83.91;100605.41;5075340;28;20685;-77
2023/08/12 01:11:48;;;;;;;2.37;2.10;;;;;;;21.41;83.61;100614.97;5074930;28;20598;-76
2023/08/12 01:14:22;;;;;;;5.37;2.10;;;;;;;21.40;83.91;100615.91;5075183;28;20550;-77
2023/08/12 01:16:55;;;;;;;2.63;2.43;;;;;;;21.41;83.92;100607.00;5075240;28;20220;-77
2023/08/12 01:19:33;;;;;;;2.93;2.10;;;;;;;21.43;83.69;100612.25;5075013;28;20212;-77
2023/08/12 01:22:01;;;;;;;2.50;2.30;;;;;;;21.42;83.51;100610.50;5075377;28;20573;-76
2023/08/12 01:24:35;;;;;;;2.70;2.50;;;;;;;21.42;83.57;100607.84;5074481;28;20666;-77
2023/08/12 01:27:01;;;;;;;2.93;2.73;;;;;;;21.40;83.80;100607.09;5075250;28;20301;-77
2023/08/12 01:29:28;;;;;;;2.83;2.20;;;;;;;21.36;83.77;100606.41;5074801;28;20287;-77
2023/08/12 01:31:59;;;;;;;4.10;2.57;;;;;;;21.38;84.29;100601.88;5074804;28;20431;-77
2023/08/12 01:34:34;;;;;;;3.00;2.23;;;;;;;21.39;84.39;100590.31;5074436;28;20208;-77
2023/08/12 01:37:05;;;;;;;12.33;2.93;;;;;;;21.41;84.37;100584.91;5074704;28;20196;-77
2023/08/12 01:39:36;;;;;;;2.30;2.13;;;;;;;21.37;84.18;100584.25;5075076;28;20236;-77
2023/08/12 01:42:03;;;;;;;2.50;2.30;;;;;;;21.38;84.15;100580.63;5074734;28;20224;-76
2023/08/12 01:44:30;;;;;;;3.27;2.00;;;;;;;21.38;84.31;100572.66;5074426;28;20220;-76
2023/08/12 01:46:56;;;;;;;2.73;2.20;;;;;;;21.39;84.58;100566.41;5074562;28;20220;-77
2023/08/12 01:49:24;;;;;;;3.50;2.30;;;;;;;21.40;84.30;100562.78;5073659;28;20225;-76
2023/08/12 01:51:51;;;;;;;2.40;2.20;;;;;;;21.41;84.33;100568.97;5074330;28;20729;-77
2023/08/12 01:54:17;;;;;;;2.70;2.50;;;;;;;21.37;84.64;100563.00;5074831;28;20205;-76
2023/08/12 01:56:45;;;;;;;2.97;2.40;;;;;;;21.35;85.02;100559.59;5074016;28;20687;-76
2023/08/12 01:59:11;;;;;;;10.57;3.10;;;;;;;21.36;85.34;100550.66;5074149;28;20205;-76
2023/08/12 02:01:38;;;;;;;2.90;2.43;;;;;;;21.30;85.70;100542.22;5073688;28;20221;-77
2023/08/12 02:04:05;;;;;;;5.63;2.53;;;;;;;21.26;85.63;100541.56;5074351;28;20296;-77
2023/08/12 02:06:31;;;;;;;3.13;2.83;;;;;;;21.22;85.54;100545.34;5074000;28;20204;-76
2023/08/12 02:08:58;;;;;;;2.63;2.03;;;;;;;21.25;85.57;100537.22;5073591;28;20609;-77
2023/08/12 02:11:24;;;;;;;5.20;2.30;;;;;;;21.23;85.49;100536.47;5074242;28;20232;-76
2023/08/12 02:13:52;;;;;;;2.47;1.90;;;;;;;21.20;85.18;100550.75;5073200;28;20220;-77
2023/08/12 02:16:18;;;;;;;3.40;2.30;;;;;;;21.15;86.17;100528.97;5074067;28;20208;-76
2023/08/12 02:18:45;;;;;;;4.67;2.33;;;;;;;21.16;85.92;100525.34;5073887;28;20200;-77
2023/08/12 02:21:11;;;;;;;2.87;2.67;;;;;;;21.15;85.69;100531.63;5074172;28;20232;-77
2023/08/12 02:23:38;;;;;;;4.00;2.30;;;;;;;21.16;85.40;100524.50;5073593;28;20592;-77
2023/08/12 02:26:04;;;;;;;5.33;2.80;;;;;;;21.14;85.65;100523.75;5074340;28;20215;-77
2023/08/12 02:28:31;;;;;;;3.03;2.83;;;;;;;21.11;85.90;100515.94;5066088;28;20701;-77
2023/08/12 02:30:58;;;;;;;2.80;2.60;;;;;;;21.12;85.89;100513.22;5073731;28;20641;-77
2023/08/12 02:33:25;;;;;;;3.37;2.33;;;;;;;21.13;85.81;100524.66;5073140;28;20682;-76
2023/08/12 02:35:54;;;;;;;4.63;2.40;;;;;;;21.11;86.04;100511.53;5053825;28;20205;-78
2023/08/12 02:38:20;;;;;;;2.77;2.30;;;;;;;21.11;86.27;100506.22;5053913;28;20237;-77
2023/08/12 02:40:48;;;;;;;2.73;2.53;;;;;;;21.13;86.15;100504.31;5053635;28;20613;-77
2023/08/12 02:43:15;;;;;;;2.70;2.27;;;;;;;21.13;86.60;100501.66;5053129;28;20216;-77
2023/08/12 02:45:41;;;;;;;18.57;2.83;;;;;;;21.07;86.83;100495.84;5053120;28;20209;-77
2023/08/12 02:48:10;;;;;;;7.00;2.40;;;;;;;20.97;84.24;100543.34;5053600;28;20222;-77
2023/08/12 02:50:37;;;;;;;2.93;2.20;;;;;;;20.92;79.43;100633.00;5066301;28;20240;-77
2023/08/12 02:53:04;;;;;;;3.63;2.47;;;;;;;21.04;79.24;100674.75;5073189;28;20595;-77
2023/08/12 02:55:31;;;;;;;2.73;2.50;;;;;;;21.06;78.98;100702.03;5073476;28;20216;-78
2023/08/12 02:57:58;;;;;;;3.27;2.80;;;;;;;20.78;81.20;100682.41;5072915;28;20519;-77
2023/08/12 03:00:24;;;;;;;4.30;3.23;;;;;;;20.22;85.20;100634.28;5073142;28;20470;-77
2023/08/12 03:02:51;;;;;;;8.33;3.10;;;;;;;19.95;88.49;100543.94;5073611;28;20204;-76
2023/08/12 03:05:19;;;;;;;3.50;2.40;;;;;;;19.95;89.75;100493.59;5073278;28;20227;-76
2023/08/12 03:07:46;;;;;;;7.43;3.20;;;;;;;20.08;89.38;100491.13;5072847;28;20232;-77
2023/08/12 03:10:13;;;;;;;3.40;3.00;;;;;;;20.27;89.01;100482.06;5072870;28;20615;-77
2023/08/12 03:12:39;;;;;;;3.33;2.63;;;;;;;20.40;88.59;100496.31;5072773;28;20648;-77
2023/08/12 03:15:08;;;;;;;3.47;3.17;;;;;;;20.53;88.34;100491.97;5072743;28;20209;-76
2023/08/12 03:17:34;;;;;;;8.20;2.73;;;;;;;20.62;87.50;100509.19;5073186;28;20201;-77
2023/08/12 03:20:01;;;;;;;3.00;2.60;;;;;;;20.69;87.47;100513.16;5072537;28;20675;-77
2023/08/12 03:22:29;;;;;;;3.93;2.90;;;;;;;20.74;86.85;100529.66;5072556;28;20221;-77
2023/08/12 03:24:56;;;;;;;4.60;3.37;;;;;;;20.76;85.78;100543.69;5072119;28;20228;-77
2023/08/12 03:27:22;;;;;;;11.53;2.80;;;;;;;20.82;86.00;100543.31;5072265;28;20698;-77
2023/08/12 03:29:48;;;;;;;4.83;3.00;;;;;;;20.79;87.94;100534.69;5072349;28;20209;-77
2023/08/12 03:32:15;;;;;;;2.93;2.43;;;;;;;20.81;88.15;100528.38;5072898;28;20220;-77
2023/08/12 03:34:41;;;;;;;3.27;3.03;;;;;;;20.86;86.78;100533.38;5072620;28;20573;-77
2023/08/12 03:37:08;;;;;;;4.47;2.53;;;;;;;20.76;86.98;100538.38;5072123;28;20215;-76
2023/08/12 03:39:36;;;;;;;3.70;2.83;;;;;;;20.76;87.22;100538.38;5072568;28;20219;-76
2023/08/12 03:42:02;;;;;;;8.77;3.27;;;;;;;20.59;84.12;100581.84;5071989;28;20225;-77
2023/08/12 03:44:29;;;;;;;3.00;2.70;;;;;;;20.70;83.67;100602.44;5072067;28;20206;-77
2023/08/12 03:46:55;;;;;;;3.20;2.70;;;;;;;20.73;84.10;100606.69;5072558;28;20203;-76
2023/08/12 03:49:22;;;;;;;5.90;2.40;;;;;;;20.80;83.49;100638.09;5071647;28;20686;-76
2023/08/12 03:51:48;;;;;;;2.83;2.50;;;;;;;20.90;83.74;100618.97;5072449;28;20586;-76
2023/08/12 03:54:15;;;;;;;2.50;2.30;;;;;;;20.92;83.38;100630.34;5072407;28;20212;-76
2023/08/12 03:56:42;;;;;;;2.83;2.63;;;;;;;20.96;82.68;100648.66;5072192;28;20219;-76
2023/08/12 03:59:09;;;;;;;2.80;2.60;;;;;;;20.88;83.31;100650.91;5071900;28;20201;-77
2023/08/12 04:01:35;;;;;;;4.03;3.00;;;;;;;20.85;83.96;100632.50;5072286;28;20220;-76
2023/08/12 04:04:02;;;;;;;2.73;2.53;;;;;;;20.62;84.62;100626.75;5071888;28;20599;-77
2023/08/12 04:06:29;;;;;;;3.13;2.83;;;;;;;20.62;85.22;100607.34;5072040;28;20208;-76
2023/08/12 04:08:55;;;;;;;3.47;2.50;;;;;;;20.61;85.00;100609.13;5071902;28;20224;-76
2023/08/12 04:11:22;;;;;;;3.67;2.80;;;;;;;20.56;85.96;100599.69;5072124;28;20233;-76
2023/08/12 04:13:49;;;;;;;3.17;2.80;;;;;;;20.64;86.81;100573.63;5052147;28;20206;-77
2023/08/12 04:16:16;;;;;;;2.70;2.50;;;;;;;20.68;88.49;100543.31;5058264;28;20221;-77
2023/08/12 04:18:43;;;;;;;3.77;2.93;;;;;;;20.76;87.43;100546.34;5071521;28;20204;-77
2023/08/12 04:21:09;;;;;;;3.50;2.60;;;;;;;20.55;86.26;100559.03;5072147;28;20224;-77
2023/08/12 04:23:36;;;;;;;2.60;2.40;;;;;;;20.53;86.81;100566.25;5053920;28;20213;-76
2023/08/12 04:26:02;;;;;;;3.40;3.10;;;;;;;20.58;87.74;100550.91;5064550;28;20204;-77
2023/08/12 04:28:28;;;;;;;3.00;2.60;;;;;;;20.69;88.49;100544.16;5071188;28;20228;-77
2023/08/12 04:30:56;;;;;;;2.73;2.50;;;;;;;20.74;89.43;100519.06;5071873;28;20228;-77
2023/08/12 04:33:24;;;;;;;2.27;2.17;;;;;;;20.76;90.13;100505.72;5071707;28;20584;-77
2023/08/12 04:35:50;;;;;;;4.43;2.50;;;;;;;20.79;90.56;100503.72;5071480;28;20215;-77
2023/08/12 04:38:18;;;;;;;2.50;2.30;;;;;;;20.82;90.83;100500.03;5071194;28;20212;-77
2023/08/12 04:40:44;;;;;;;2.70;2.40;;;;;;;20.84;90.88;100500.78;5072002;28;20224;-77
2023/08/12 04:43:11;;;;;;;2.40;2.20;;;;;;;20.81;91.15;100493.88;5070823;28;20208;-77
2023/08/12 04:45:38;;;;;;;2.70;2.40;;;;;;;20.83;91.48;100493.75;5071745;28;20205;-77
2023/08/12 04:48:08;;;;;;;2.60;2.40;;;;;;;20.80;92.60;100484.19;5071645;28;20255;-77
2023/08/12 04:50:34;;;;;;;2.90;2.70;;;;;;;20.75;93.59;100462.41;5070850;28;20212;-77
2023/08/12 04:53:01;;;;;;;3.87;2.60;;;;;;;20.71;94.72;100447.59;5071720;28;20208;-77
2023/08/12 04:55:28;;;;;;;4.77;3.00;;;;;;;20.60;96.93;100416.44;5071587;28;20211;-77
2023/08/12 04:57:54;;;;;;;3.20;3.00;;;;;;;20.43;99.20;100387.41;5051162;28;20825;-77
2023/08/12 05:00:21;;;;;;;2.87;2.67;;;;;;;20.30;100.00;100341.41;5051480;28;20229;-77
2023/08/12 05:02:48;;;;;;;3.57;3.07;;;;;;;20.32;100.00;100348.31;5051281;28;20659;-76
2023/08/12 05:05:16;;;;;;;2.90;2.60;;;;;;;20.35;100.00;100352.56;5051027;28;20210;-77
2023/08/12 05:07:44;;;;;;;8.20;2.97;;;;;;;20.33;100.00;100352.66;5050870;28;20201;-76
2023/08/12 05:10:11;;;;;;;3.20;3.00;;;;;;;20.30;100.00;100349.38;5051403;28;20443;-75
2023/08/12 05:12:37;;;;;;;2.77;2.50;;;;;;;20.30;100.00;100358.16;5050728;28;20251;-76
2023/08/12 05:15:04;;;;;;;3.47;2.90;;;;;;;20.31;100.00;100366.97;5050721;28;20306;-76
2023/08/12 05:17:31;;;;;;;3.87;3.07;;;;;;;20.27;100.00;100355.69;5051427;28;20216;-76
2023/08/12 05:19:57;;;;;;;3.57;3.27;;;;;;;20.23;100.00;100349.72;5050594;28;20237;-77
2023/08/12 05:22:25;;;;;;;3.00;2.70;;;;;;;20.31;100.00;100370.44;5050981;28;20746;-77
2023/08/12 05:24:52;;;;;;;3.53;3.23;;;;;;;20.36;100.00;100386.09;5051240;28;20240;-77
2023/08/12 05:27:18;;;;;;;3.27;2.97;;;;;;;20.38;100.00;100398.31;5050859;28;20214;-77
2023/08/12 05:29:44;;;;;;;4.90;3.00;;;;;;;20.47;100.00;100409.31;5050524;28;20683;-77
2023/08/12 05:32:11;;;;;;;4.80;3.13;;;;;;;20.51;100.00;100405.50;5051251;28;20251;-77
2023/08/12 05:34:37;;;;;;;3.50;3.03;;;;;;;20.49;100.00;100418.84;5050894;28;20213;-77
2023/08/12 05:37:04;;;;;;;3.43;3.10;;;;;;;20.49;100.00;100404.75;5051076;28;20201;-76
2023/08/12 05:39:32;;;;;;;5.07;2.70;;;;;;;20.54;100.00;100405.34;5050959;28;20208;-77
2023/08/12 05:41:58;;;;;;;4.50;3.00;;;;;;;20.53;100.00;100401.81;5053946;28;20228;-77
2023/08/12 05:44:25;;;;;;;3.63;3.30;;;;;;;20.60;100.00;100397.03;5070479;28;20873;-77
2023/08/12 05:46:51;;;;;;;2.63;2.43;;;;;;;20.59;100.00;100397.97;5070911;28;20666;-77
2023/08/12 05:49:18;;;;;;;3.30;3.10;;;;;;;20.62;100.00;100397.78;5074404;28;20229;-76
2023/08/12 05:51:44;;;;;;;3.10;2.77;;;;;;;20.67;100.00;100405.47;5074271;28;20235;-76
2023/08/12 05:54:11;;;;;;;4.57;3.00;;;;;;;20.69;100.00;100412.38;5074347;28;20215;-77
2023/08/12 05:56:39;;;;;;;3.97;3.63;;;;;;;20.67;100.00;100395.69;5074497;28;20210;-77
2023/08/12 05:59:05;;;;;;;4.23;3.83;;;;;;;20.66;100.00;100399.31;5073672;28;20203;-76
2023/08/12 06:01:32;;;;;;;4.13;3.80;;;;;;;20.27;100.00;100429.91;5074459;28;20280;-77
2023/08/12 06:03:58;;;;;;;3.90;3.57;;;;;;;20.32;100.00;100385.44;5074122;28;21786;-76
2023/08/12 06:06:25;;;;;;;3.63;3.33;;;;;;;20.45;100.00;100382.88;5074320;28;20295;-76
2023/08/12 06:08:51;;;;;;;3.33;3.03;;;;;;;20.55;100.00;100385.81;5074081;28;20228;-77
2023/08/12 06:11:18;;;;;;;4.03;3.63;;;;;;;20.61;100.00;100385.47;5074342;28;20306;-77
2023/08/12 06:13:46;;;;;;;4.03;3.07;;;;;;;20.55;100.00;100421.13;5073876;28;20205;-76
2023/08/12 06:16:12;;;;;;;5.03;3.20;;;;;;;20.60;100.00;100389.94;5074094;28;20205;-77
2023/08/12 06:18:39;;;;;;;3.73;3.50;;;;;;;20.60;100.00;100370.50;5073811;28;20219;-77
2023/08/12 06:21:05;;;;;;;3.47;2.90;;;;;;;20.65;100.00;100373.72;5066093;28;20231;-77
2023/08/12 06:23:32;;;;;;;3.90;3.60;;;;;;;20.69;100.00;100385.84;5074198;28;20209;-76
2023/08/12 06:25:58;;;;;;;3.93;3.63;;;;;;;20.65;100.00;100376.38;5074035;28;20213;-76
2023/08/12 06:28:25;;;;;;;3.80;3.50;;;;;;;20.51;100.00;100350.66;5073563;28;20228;-77
2023/08/12 06:30:53;;;;;;;3.60;3.40;;;;;;;20.56;100.00;100353.06;5073934;28;20232;-75
2023/08/12 06:33:19;;;;;;;4.10;3.50;;;;;;;20.61;100.00;100353.63;5073933;28;20817;-76
2023/08/12 06:35:46;;;;;;;4.20;3.63;;;;;;;20.56;100.00;100351.25;5074055;28;20215;-76
2023/08/12 06:38:13;;;;;;;3.53;3.33;;;;;;;20.51;100.00;100358.63;5069314;28;20206;-76
2023/08/12 06:40:40;;;;;;;5.63;3.50;;;;;;;20.54;100.00;100349.66;5054377;28;20236;-76
2023/08/12 06:43:07;;;;;;;3.97;3.67;;;;;;;20.57;100.00;100357.41;5053332;28;20207;-76
2023/08/12 06:45:33;;;;;;;4.20;3.90;;;;;;;20.63;100.00;100368.53;5054670;28;20229;-75
2023/08/12 06:48:02;;;;;;;4.67;4.27;;;;;;;20.67;100.00;100369.16;5054379;28;20573;-75
2023/08/12 06:50:30;;;;;;;5.80;4.47;;;;;;;20.75;100.00;100384.59;5066267;28;20238;-76
2023/08/12 06:52:57;;;;;;;3.90;3.33;;;;;;;20.83;100.00;100396.47;5070176;28;20197;-76
2023/08/12 06:55:23;;;;;;;4.23;3.87;;;;;;;20.87;100.00;100405.09;5066015;28;20634;-76
2023/08/12 06:57:50;;;;;;;3.53;3.23;;;;;;;20.96;100.00;100416.91;5066683;28;20200;-76
2023/08/12 07:00:16;;;;;;;4.33;3.63;;;;;;;21.00;100.00;100427.25;5065994;28;20208;-76
2023/08/12 07:02:43;;;;;;;3.77;3.47;;;;;;;21.12;100.00;100427.44;5068001;28;20206;-77
2023/08/12 07:05:11;;;;;;;4.27;3.97;;;;;;;21.10;100.00;100402.78;5066332;28;20209;-78
2023/08/12 07:07:37;;;;;;;4.27;3.87;;;;;;;21.16;100.00;100408.53;5056579;28;20229;-77
2023/08/12 07:10:07;;;;;;;3.50;3.30;;;;;;;21.24;100.00;100421.31;5058867;28;20224;-76
2023/08/12 07:12:35;;;;;;;4.33;3.93;;;;;;;21.32;100.00;100432.31;5058465;28;20228;-76
2023/08/12 07:15:01;;;;;;;4.07;3.77;;;;;;;21.42;100.00;100452.00;5065632;28;20393;-75
2023/08/12 07:17:28;;;;;;;3.83;3.53;;;;;;;21.39;100.00;100448.72;5072749;28;20200;-76
2023/08/12 07:19:54;;;;;;;5.90;3.87;;;;;;;21.45;100.00;100480.22;5072362;28;20212;-76
2023/08/12 07:22:22;;;;;;;3.40;3.20;;;;;;;21.52;100.00;100476.22;5072762;28;20225;-76
2023/08/12 07:24:48;;;;;;;4.53;4.13;;;;;;;21.50;100.00;100467.47;5072360;28;20212;-75
2023/08/12 07:27:15;;;;;;;4.43;3.97;;;;;;;21.54;100.00;100478.78;5065288;28;20204;-78
2023/08/12 07:29:41;;;;;;;9.83;3.80;;;;;;;21.64;100.00;100487.00;5072003;28;20231;-78
2023/08/12 07:32:08;;;;;;;3.67;3.33;;;;;;;21.72;100.00;100487.34;5072420;28;20231;-76
2023/08/12 07:34:34;;;;;;;3.87;3.43;;;;;;;21.76;100.00;100481.75;5072349;28;20673;-77
2023/08/12 07:37:01;;;;;;;4.10;3.80;;;;;;;21.74;100.00;100472.16;5072583;28;20205;-77
2023/08/12 07:39:29;;;;;;;4.33;3.67;;;;;;;21.71;100.00;100459.94;5069074;28;20294;-76
2023/08/12 07:41:55;;;;;;;4.03;3.73;;;;;;;21.75;100.00;100458.78;5068070;28;20227;-75
2023/08/12 07:44:22;;;;;;;3.90;3.60;;;;;;;21.79;100.00;100473.56;5071391;28;20209;-78
2023/08/12 07:46:49;;;;;;;3.80;3.50;;;;;;;21.87;100.00;100482.88;5072354;28;20760;-79
2023/08/12 07:49:17;;;;;;;4.10;3.80;;;;;;;21.95;100.00;100480.56;5069079;28;20274;-80
2023/08/12 07:51:43;;;;;;;4.23;3.70;;;;;;;22.06;100.00;100498.44;5059880;28;20312;-80
2023/08/12 07:54:10;;;;;;;4.00;3.70;;;;;;;22.10;100.00;100487.53;5060319;28;20197;-80
2023/08/12 07:56:38;;;;;;;4.40;4.00;;;;;;;22.14;100.00;100489.00;5058661;28;20217;-80
2023/08/12 07:59:05;;;;;;;4.20;3.90;;;;;;;22.18;100.00;100487.00;5060356;28;20552;-81
2023/08/12 08:01:31;;;;;;;3.63;3.43;;;;;;;22.18;100.00;100484.34;5057640;28;20227;-81
2023/08/12 08:03:58;;;;;;;3.87;3.57;;;;;;;22.00;100.00;100484.63;5057589;28;20205;-80
2023/08/12 08:06:24;;;;;;;3.70;3.40;;;;;;;22.09;100.00;100474.31;5060253;28;20205;-79
2023/08/12 08:08:51;;;;;;;4.00;3.70;;;;;;;22.14;100.00;100489.00;5057849;28;20242;-80
2023/08/12 08:11:17;;;;;;;4.40;3.47;;;;;;;22.15;100.00;100488.03;5058249;28;20225;-81
2023/08/12 08:13:45;;;;;;;4.30;4.00;;;;;;;22.20;100.00;100487.75;5063272;28;20565;-84
2023/08/12 08:16:12;;;;;;;3.60;3.30;;;;;;;22.23;100.00;100490.19;5060661;28;20209;-84
2023/08/12 08:18:38;;;;;;;4.10;3.80;;;;;;;22.23;100.00;100482.22;5062551;28;20209;-81
2023/08/12 08:21:04;;;;;;;3.97;3.70;;;;;;;22.18;99.69;100487.84;5057420;28;20237;-80
2023/08/12 08:23:31;;;;;;;6.57;3.87;;;;;;;22.16;100.00;100486.22;5060841;28;20234;-80
2023/08/12 08:25:58;;;;;;;4.00;3.70;;;;;;;22.14;99.05;100491.69;5056376;28;20205;-81
2023/08/12 08:28:24;;;;;;;4.03;3.73;;;;;;;22.17;98.38;100503.91;5060524;28;20686;-80
2023/08/12 08:30:53;;;;;;;4.37;4.03;;;;;;;22.17;98.86;100494.09;5065691;28;20236;-83
2023/08/12 08:33:19;;;;;;;4.43;4.13;;;;;;;22.20;99.03;100488.59;5061877;28;21142;-82
2023/08/12 08:35:47;;;;;;;4.23;3.83;;;;;;;22.20;99.26;100483.28;5058475;28;20197;-82
2023/08/12 08:38:13;;;;;;;4.00;3.80;;;;;;;22.19;99.73;100478.91;5058993;28;20282;-81
2023/08/12 08:40:40;;;;;;;4.73;3.70;;;;;;;22.13;100.00;100450.06;5055350;28;20259;-80
2023/08/12 08:43:08;;;;;;;4.60;4.20;;;;;;;22.15;100.00;100447.31;5059403;28;20208;-82
2023/08/12 08:45:35;;;;;;;4.03;3.70;;;;;;;22.13;100.00;100433.28;5064441;28;20301;-82
2023/08/12 08:48:05;;;;;;;4.00;3.70;;;;;;;22.16;100.00;100446.34;5059097;28;20204;-82
2023/08/12 08:50:33;;;;;;;4.20;3.90;;;;;;;22.18;100.00;100449.78;5068887;28;20599;-82
2023/08/12 08:53:02;;;;;;;4.43;4.03;;;;;;;22.23;100.00;100462.75;5073196;28;20601;-81
2023/08/12 08:55:29;;;;;;;3.67;3.47;;;;;;;22.03;100.00;100451.66;5072912;28;20297;-82
2023/08/12 08:57:57;;;;;;;4.30;3.90;;;;;;;21.93;100.00;100437.28;5071614;28;20201;-82
2023/08/12 09:00:24;;;;;;;4.70;4.20;;;;;;;21.97;100.00;100452.06;5073583;28;20200;-81
2023/08/12 09:02:51;;;;;;;4.70;4.07;;;;;;;22.00;100.00;100442.09;5073213;28;20235;-83
2023/08/12 09:05:21;;;;;;;5.03;4.57;;;;;;;22.07;100.00;100433.69;5074647;28;20659;-83
2023/08/12 09:07:49;;;;;;;4.07;3.77;;;;;;;22.12;100.00;100434.22;5080222;28;20207;-83
2023/08/12 09:10:18;;;;;;;4.27;3.90;;;;;;;22.20;100.00;100442.56;5077715;28;20224;-84
2023/08/12 09:12:46;;;;;;;4.07;3.77;;;;;;;22.28;100.00;100426.97;5077841;28;20215;-84
2023/08/12 09:15:13;;;;;;;5.00;4.60;;;;;;;22.39;100.00;100431.53;5076736;28;20204;-84
2023/08/12 09:18:02;;;;;;;4.53;4.13;;;;;;;22.55;100.00;100429.50;5078754;28;20748;-86
2023/08/12 09:20:31;;;;;;;4.53;4.13;;;;;;;22.70;98.61;100456.88;5089393;28;20197;-87
2023/08/12 09:22:59;;;;;;;5.20;4.67;;;;;;;22.83;97.88;100467.50;5092512;28;20292;-84
2023/08/12 09:25:27;;;;;;;5.53;5.03;;;;;;;22.96;96.18;100481.66;5079541;28;20207;-86
2023/08/12 09:27:55;;;;;;;5.53;5.13;;;;;;;23.04;95.57;100496.28;5078745;28;20212;-84
2023/08/12 09:30:23;;;;;;;4.63;4.33;;;;;;;23.18;93.87;100523.63;5077012;28;20694;-86
2023/08/12 09:33:00;;;;;;;4.73;4.33;;;;;;;23.35;91.31;100577.56;5077233;28;20264;-84
2023/08/12 09:35:35;;;;;;;4.40;4.00;;;;;;;23.52;92.41;100555.03;5078395;28;20196;-84
2023/08/12 09:38:04;;;;;;;5.33;4.93;;;;;;;23.65;90.50;100569.19;5076279;28;20211;-83
2023/08/12 09:40:31;;;;;;;3.90;3.60;;;;;;;23.75;89.59;100580.88;5076390;28;20197;-83
2023/08/12 09:43:00;;;;;;;4.50;4.20;;;;;;;23.81;93.94;100502.31;5075822;28;20291;-84
2023/08/12 09:45:27;;;;;;;4.03;3.70;;;;;;;23.91;92.84;100495.34;5076486;28;20287;-84
2023/08/12 09:47:56;;;;;;;4.43;4.13;;;;;;;23.95;88.39;100567.97;5076485;28;20638;-83
2023/08/12 09:57:43;;;;;;;4.33;4.03;;;;;;;24.27;89.42;100549.56;5070605;28;20201;-87
2023/08/12 10:00:13;;;;;;;5.60;3.90;;;;;;;24.17;83.05;100650.75;5074419;28;20220;-85
2023/08/12 10:02:41;;;;;;;3.90;3.70;;;;;;;24.17;83.27;100679.25;5077393;28;20260;-83
2023/08/12 10:05:11;;;;;;;4.10;3.80;;;;;;;24.12;85.83;100642.25;5062629;28;20655;-82
2023/08/12 10:07:39;;;;;;;5.10;4.13;;;;;;;24.15;86.75;100625.19;5075338;28;20223;-82
2023/08/12 10:10:07;;;;;;;5.30;4.70;;;;;;;24.02;83.70;100673.19;5079237;28;20230;-82
2023/08/12 10:12:34;;;;;;;7.77;5.47;;;;;;;23.92;82.60;100717.50;5077170;28;20696;-82
2023/08/12 10:15:03;;;;;;;4.27;3.97;;;;;;;23.72;83.41;100711.72;5078774;28;20573;-83
2023/08/12 10:17:30;;;;;;;4.90;4.50;;;;;;;23.76;86.49;100657.22;5078457;28;20227;-84
2023/08/12 10:19:57;;;;;;;5.20;4.13;;;;;;;23.81;87.20;100626.78;5080068;28;20207;-84
2023/08/12 10:22:25;;;;;;;4.63;4.33;;;;;;;23.81;90.06;100563.63;5080292;28;20236;-84
2023/08/12 10:24:51;;;;;;;4.17;3.80;;;;;;;23.79;91.02;100525.56;5079412;28;20197;-82
2023/08/12 10:27:21;;;;;;;4.30;4.00;;;;;;;23.82;91.51;100512.00;5079306;28;20275;-84
2023/08/12 10:29:47;;;;;;;5.03;4.63;;;;;;;23.84;92.30;100501.22;5079391;28;20601;-83
2023/08/12 10:32:15;;;;;;;5.03;4.63;;;;;;;23.92;91.86;100491.69;5079600;28;20711;-84
2023/08/12 10:34:43;;;;;;;4.60;4.20;;;;;;;23.98;92.42;100490.38;5077312;28;20201;-84
2023/08/12 10:37:11;;;;;;;4.57;4.17;;;;;;;23.89;93.06;100483.94;5083501;28;20204;-86
2023/08/12 10:39:38;;;;;;;3.67;3.47;;;;;;;23.81;89.57;100520.13;5076153;28;20653;-84
2023/08/12 10:42:05;;;;;;;4.20;3.80;;;;;;;23.82;92.01;100519.16;5078486;28;20226;-85
2023/08/12 10:44:40;;;;;;;4.33;3.93;;;;;;;23.91;90.19;100502.50;5077592;28;20212;-85
2023/08/12 10:47:09;;;;;;;4.17;3.87;;;;;;;23.91;91.96;100487.34;5077704;28;20205;-84
2023/08/12 10:49:43;;;;;;;5.07;4.17;;;;;;;23.77;90.65;100501.69;5078326;28;20702;-84
2023/08/12 10:52:27;;;;;;;4.10;3.77;;;;;;;23.88;89.46;100513.38;5078474;28;20224;-85
2023/08/12 10:54:53;;;;;;;4.20;3.90;;;;;;;23.98;90.53;100499.25;5081550;28;20184;-81
2023/08/12 10:57:37;;;;;;;4.13;3.83;;;;;;;24.14;89.42;100503.44;5091941;28;20207;-82
2023/08/12 11:00:07;;;;;;;3.97;3.77;;;;;;;24.26;88.59;100509.66;5075064;28;20303;-82
2023/08/12 11:02:36;;;;;;;4.30;4.03;;;;;;;24.27;86.31;100556.72;5075568;28;20617;-84
2023/08/12 11:05:05;;;;;;;3.77;3.57;;;;;;;24.46;87.23;100545.50;5075935;28;20201;-82
2023/08/12 11:07:39;;;;;;;3.70;3.40;;;;;;;24.57;86.15;100559.78;5074818;28;20212;-81
2023/08/12 11:10:13;;;;;;;4.10;3.80;;;;;;;24.61;85.12;100583.59;5075052;28;20218;-85
2023/08/12 11:12:41;;;;;;;4.17;3.87;;;;;;;24.78;87.72;100535.94;5076377;28;20220;-83
2023/08/12 11:15:08;;;;;;;4.37;3.97;;;;;;;25.00;90.14;100480.03;5076213;28;20206;-84
2023/08/12 11:17:36;;;;;;;4.37;4.07;;;;;;;24.97;83.32;100535.38;5077629;28;20205;-83
2023/08/12 11:20:06;;;;;;;5.37;4.37;;;;;;;25.22;85.93;100562.84;5076594;28;20284;-82
2023/08/12 11:22:36;;;;;;;4.87;4.47;;;;;;;25.19;82.87;100579.09;5078045;28;20226;-81
2023/08/12 11:25:04;;;;;;;3.23;3.03;;;;;;;25.23;80.20;100659.88;5071054;28;20196;-82
2023/08/12 11:27:37;;;;;;;3.97;3.67;;;;;;;25.22;78.81;100700.94;5066042;28;20211;-83
2023/08/12 11:30:05;;;;;;;3.90;3.60;;;;;;;25.14;78.95;100710.34;5069261;28;20220;-82
2023/08/12 11:32:32;;;;;;;3.47;3.17;;;;;;;25.01;78.93;100701.56;5070705;28;20639;-82
2023/08/12 11:34:59;;;;;;;3.50;3.27;;;;;;;25.15;77.81;100704.06;5071362;28;20668;-83